sensor_id;sensor_type;location;lat;lon;timestamp;noise_LAeq;noise_LA_min;noise_LA_max;noise_LA01;noise_LA95
38366;Laerm;943;51.568;6.998;2022-09-09T00:00:19;38.79;35.77;43.97;;
38366;Laerm;943;51.568;6.998;2022-09-09T00:03:25;39.35;35.56;51.52;;
38366;Laerm;943;51.568;6.998;2022-09-09T00:06:42;38.89;35.85;45.87;;
38366;Laerm;943;51.568;6.998;2022-09-09T00:09:21;38.90;35.11;53.20;;
38366;Laerm;943;51.568;6.998;2022-09-09T00:12:41;39.27;35.62;48.57;;
38366;Laerm;943;51.568;6.998;2022-09-09T00:15:23;40.40;35.24;50.69;;
38366;Laerm;943;51.568;6.998;2022-09-09T00:18:55;38.77;34.55;54.65;;
38366;Laerm;943;51.568;6.998;2022-09-09T00:21:38;38.75;34.31;48.35;;
38366;Laerm;943;51.568;6.998;2022-09-09T00:24:32;39.17;35.77;42.62;;
38366;Laerm;943;51.568;6.998;2022-09-09T00:27:25;40.50;35.08;48.43;;
38366;Laerm;943;51.568;6.998;2022-09-09T00:30:23;42.39;38.50;68.16;;
38366;Laerm;943;51.568;6.998;2022-09-09T00:33:03;39.39;35.07;52.67;;
38366;Laerm;943;51.568;6.998;2022-09-09T00:35:52;38.52;35.00;45.29;;
38366;Laerm;943;51.568;6.998;2022-09-09T00:38:42;38.49;35.15;50.37;;
38366;Laerm;943;51.568;6.998;2022-09-09T00:41:50;39.40;35.84;47.08;;
38366;Laerm;943;51.568;6.998;2022-09-09T00:44:37;38.82;35.63;50.63;;
38366;Laerm;943;51.568;6.998;2022-09-09T00:47:46;38.08;34.24;46.25;;
38366;Laerm;943;51.568;6.998;2022-09-09T00:50:59;38.52;34.93;49.68;;
38366;Laerm;943;51.568;6.998;2022-09-09T00:57:32;39.08;35.55;49.58;;
38366;Laerm;943;51.568;6.998;2022-09-09T01:00:27;40.09;36.01;46.97;;
38366;Laerm;943;51.568;6.998;2022-09-09T01:03:40;39.55;36.10;44.26;;
38366;Laerm;943;51.568;6.998;2022-09-09T01:06:38;38.66;35.86;48.92;;
38366;Laerm;943;51.568;6.998;2022-09-09T01:12:51;39.37;35.42;51.20;;
38366;Laerm;943;51.568;6.998;2022-09-09T01:15:29;39.58;35.45;43.64;;
38366;Laerm;943;51.568;6.998;2022-09-09T01:18:15;39.51;36.59;44.03;;
38366;Laerm;943;51.568;6.998;2022-09-09T01:27:16;38.76;34.57;42.37;;
38366;Laerm;943;51.568;6.998;2022-09-09T01:29:46;38.94;35.10;45.80;;
38366;Laerm;943;51.568;6.998;2022-09-09T01:32:46;39.89;35.52;54.75;;
38366;Laerm;943;51.568;6.998;2022-09-09T01:38:38;39.66;35.61;50.73;;
38366;Laerm;943;51.568;6.998;2022-09-09T01:41:06;39.04;35.22;42.86;;
38366;Laerm;943;51.568;6.998;2022-09-09T01:43:44;39.37;35.95;48.07;;
38366;Laerm;943;51.568;6.998;2022-09-09T01:46:14;40.53;36.48;48.88;;
38366;Laerm;943;51.568;6.998;2022-09-09T01:48:45;40.26;36.15;50.45;;
38366;Laerm;943;51.568;6.998;2022-09-09T01:51:13;39.18;35.85;48.51;;
38366;Laerm;943;51.568;6.998;2022-09-09T01:53:44;38.16;35.03;43.69;;
38366;Laerm;943;51.568;6.998;2022-09-09T01:56:47;39.87;36.39;44.09;;
38366;Laerm;943;51.568;6.998;2022-09-09T02:03:31;39.87;36.94;43.82;;
38366;Laerm;943;51.568;6.998;2022-09-09T02:06:38;40.27;36.57;51.91;;
38366;Laerm;943;51.568;6.998;2022-09-09T02:09:24;40.41;37.29;49.57;;
38366;Laerm;943;51.568;6.998;2022-09-09T02:12:14;40.55;37.29;54.42;;
38366;Laerm;943;51.568;6.998;2022-09-09T02:15:11;39.61;36.66;57.10;;
38366;Laerm;943;51.568;6.998;2022-09-09T02:17:52;39.58;36.51;45.05;;
38366;Laerm;943;51.568;6.998;2022-09-09T02:20:25;41.11;37.39;46.18;;
38366;Laerm;943;51.568;6.998;2022-09-09T02:23:01;40.75;36.90;47.09;;
38366;Laerm;943;51.568;6.998;2022-09-09T02:25:32;41.27;37.92;48.60;;
38366;Laerm;943;51.568;6.998;2022-09-09T02:28:14;41.18;37.97;50.49;;
38366;Laerm;943;51.568;6.998;2022-09-09T02:30:46;41.51;38.46;45.75;;
38366;Laerm;943;51.568;6.998;2022-09-09T02:33:16;41.79;38.80;47.15;;
38366;Laerm;943;51.568;6.998;2022-09-09T02:35:52;41.81;38.36;50.01;;
38366;Laerm;943;51.568;6.998;2022-09-09T02:38:34;42.78;39.51;48.78;;
38366;Laerm;943;51.568;6.998;2022-09-09T02:41:09;41.40;38.41;45.46;;
38366;Laerm;943;51.568;6.998;2022-09-09T02:43:38;41.98;38.23;64.36;;
38366;Laerm;943;51.568;6.998;2022-09-09T02:52:08;42.81;39.56;47.46;;
38366;Laerm;943;51.568;6.998;2022-09-09T02:54:43;42.03;38.78;46.56;;
38366;Laerm;943;51.568;6.998;2022-09-09T02:57:27;42.45;39.16;48.23;;
38366;Laerm;943;51.568;6.998;2022-09-09T02:59:59;41.97;38.68;52.83;;
38366;Laerm;943;51.568;6.998;2022-09-09T03:02:29;42.09;38.29;48.60;;
38366;Laerm;943;51.568;6.998;2022-09-09T03:05:03;42.50;39.55;46.05;;
38366;Laerm;943;51.568;6.998;2022-09-09T03:07:31;43.05;40.56;59.85;;
38366;Laerm;943;51.568;6.998;2022-09-09T03:09:58;43.44;40.53;48.01;;
38366;Laerm;943;51.568;6.998;2022-09-09T03:12:27;43.74;40.68;54.90;;
38366;Laerm;943;51.568;6.998;2022-09-09T03:14:55;43.34;39.75;46.91;;
38366;Laerm;943;51.568;6.998;2022-09-09T03:17:24;42.78;39.13;49.86;;
38366;Laerm;943;51.568;6.998;2022-09-09T03:19:54;42.77;39.84;45.61;;
38366;Laerm;943;51.568;6.998;2022-09-09T03:22:22;43.17;40.25;47.37;;
38366;Laerm;943;51.568;6.998;2022-09-09T03:24:50;43.55;39.77;71.60;;
38366;Laerm;943;51.568;6.998;2022-09-09T03:27:18;43.43;39.91;51.19;;
38366;Laerm;943;51.568;6.998;2022-09-09T03:29:47;43.12;39.56;61.74;;
38366;Laerm;943;51.568;6.998;2022-09-09T03:32:22;43.79;39.96;53.67;;
38366;Laerm;943;51.568;6.998;2022-09-09T03:34:50;43.61;40.01;49.12;;
38366;Laerm;943;51.568;6.998;2022-09-09T03:37:19;44.00;40.49;51.41;;
38366;Laerm;943;51.568;6.998;2022-09-09T03:39:49;44.19;40.91;47.85;;
38366;Laerm;943;51.568;6.998;2022-09-09T03:42:18;44.17;40.87;51.69;;
38366;Laerm;943;51.568;6.998;2022-09-09T03:44:50;47.36;41.57;79.51;;
38366;Laerm;943;51.568;6.998;2022-09-09T03:47:22;44.09;40.84;47.80;;
38366;Laerm;943;51.568;6.998;2022-09-09T03:49:54;44.71;40.88;48.38;;
38366;Laerm;943;51.568;6.998;2022-09-09T03:52:21;44.82;41.44;48.46;;
38366;Laerm;943;51.568;6.998;2022-09-09T03:54:54;44.59;41.11;49.28;;
38366;Laerm;943;51.568;6.998;2022-09-09T03:57:22;43.99;40.89;60.85;;
38366;Laerm;943;51.568;6.998;2022-09-09T03:59:50;44.53;41.38;52.46;;
38366;Laerm;943;51.568;6.998;2022-09-09T04:02:18;44.16;41.32;49.03;;
38366;Laerm;943;51.568;6.998;2022-09-09T04:04:46;47.85;41.45;70.49;;
38366;Laerm;943;51.568;6.998;2022-09-09T04:07:14;44.41;41.09;52.60;;
38366;Laerm;943;51.568;6.998;2022-09-09T04:09:44;44.80;42.18;49.99;;
38366;Laerm;943;51.568;6.998;2022-09-09T04:12:13;44.83;41.11;49.17;;
38366;Laerm;943;51.568;6.998;2022-09-09T04:14:41;44.78;41.78;54.00;;
38366;Laerm;943;51.568;6.998;2022-09-09T04:17:10;48.28;41.46;81.80;;
38366;Laerm;943;51.568;6.998;2022-09-09T04:19:38;44.66;42.15;50.01;;
38366;Laerm;943;51.568;6.998;2022-09-09T04:22:06;45.33;42.15;52.91;;
38366;Laerm;943;51.568;6.998;2022-09-09T04:24:33;45.04;42.26;58.47;;
38366;Laerm;943;51.568;6.998;2022-09-09T04:27:03;44.69;40.59;49.07;;
38366;Laerm;943;51.568;6.998;2022-09-09T04:29:34;47.44;41.06;65.22;;
38366;Laerm;943;51.568;6.998;2022-09-09T04:32:02;45.81;40.92;63.19;;
38366;Laerm;943;51.568;6.998;2022-09-09T04:34:29;44.35;41.25;60.47;;
38366;Laerm;943;51.568;6.998;2022-09-09T04:36:58;44.50;40.97;59.50;;
38366;Laerm;943;51.568;6.998;2022-09-09T04:39:27;45.32;41.86;50.87;;
38366;Laerm;943;51.568;6.998;2022-09-09T04:41:56;45.57;41.73;59.66;;
38366;Laerm;943;51.568;6.998;2022-09-09T04:44:23;45.27;41.64;61.81;;
38366;Laerm;943;51.568;6.998;2022-09-09T04:46:51;44.51;41.46;58.43;;
38366;Laerm;943;51.568;6.998;2022-09-09T04:49:20;44.86;41.32;65.30;;
38366;Laerm;943;51.568;6.998;2022-09-09T04:51:49;45.72;42.30;57.22;;
38366;Laerm;943;51.568;6.998;2022-09-09T04:54:18;46.61;42.70;58.87;;
38366;Laerm;943;51.568;6.998;2022-09-09T04:56:46;45.92;40.99;57.74;;
38366;Laerm;943;51.568;6.998;2022-09-09T04:59:14;45.38;41.63;59.70;;
38366;Laerm;943;51.568;6.998;2022-09-09T05:01:46;45.71;41.52;58.49;;
38366;Laerm;943;51.568;6.998;2022-09-09T05:04:14;46.21;42.46;60.77;;
38366;Laerm;943;51.568;6.998;2022-09-09T05:06:45;46.32;41.58;66.30;;
38366;Laerm;943;51.568;6.998;2022-09-09T05:09:13;46.22;42.36;56.27;;
38366;Laerm;943;51.568;6.998;2022-09-09T05:11:41;47.79;42.62;67.94;;
38366;Laerm;943;51.568;6.998;2022-09-09T05:14:16;46.86;41.66;67.18;;
38366;Laerm;943;51.568;6.998;2022-09-09T05:16:48;46.31;42.79;57.79;;
38366;Laerm;943;51.568;6.998;2022-09-09T05:19:17;46.63;42.64;57.95;;
38366;Laerm;943;51.568;6.998;2022-09-09T05:21:49;49.23;41.68;73.19;;
38366;Laerm;943;51.568;6.998;2022-09-09T05:24:21;48.74;42.54;68.55;;
38366;Laerm;943;51.568;6.998;2022-09-09T05:26:53;46.29;42.14;62.30;;
38366;Laerm;943;51.568;6.998;2022-09-09T05:29:21;47.87;41.88;63.18;;
38366;Laerm;943;51.568;6.998;2022-09-09T05:31:49;46.75;42.62;58.74;;
38366;Laerm;943;51.568;6.998;2022-09-09T05:34:20;45.49;41.95;59.45;;
38366;Laerm;943;51.568;6.998;2022-09-09T05:36:49;45.99;43.36;59.78;;
38366;Laerm;943;51.568;6.998;2022-09-09T05:39:17;48.55;42.58;67.51;;
38366;Laerm;943;51.568;6.998;2022-09-09T05:41:45;48.69;45.40;61.04;;
38366;Laerm;943;51.568;6.998;2022-09-09T05:44:13;47.26;43.42;62.05;;
38366;Laerm;943;51.568;6.998;2022-09-09T05:46:41;46.12;42.97;56.20;;
38366;Laerm;943;51.568;6.998;2022-09-09T05:49:08;47.25;42.81;60.15;;
38366;Laerm;943;51.568;6.998;2022-09-09T05:51:39;45.45;42.49;53.08;;
38366;Laerm;943;51.568;6.998;2022-09-09T05:54:11;46.14;43.29;53.72;;
38366;Laerm;943;51.568;6.998;2022-09-09T05:56:45;46.10;42.14;63.03;;
38366;Laerm;943;51.568;6.998;2022-09-09T05:59:18;45.97;42.25;60.20;;
38366;Laerm;943;51.568;6.998;2022-09-09T06:01:46;46.45;42.83;60.25;;
38366;Laerm;943;51.568;6.998;2022-09-09T06:04:21;45.59;41.80;56.80;;
38366;Laerm;943;51.568;6.998;2022-09-09T06:06:50;51.85;42.07;78.46;;
38366;Laerm;943;51.568;6.998;2022-09-09T06:09:20;46.04;42.42;68.01;;
38366;Laerm;943;51.568;6.998;2022-09-09T06:11:49;46.20;42.21;68.15;;
38366;Laerm;943;51.568;6.998;2022-09-09T06:14:17;47.56;42.30;69.89;;
38366;Laerm;943;51.568;6.998;2022-09-09T06:16:48;45.08;42.17;50.02;;
38366;Laerm;943;51.568;6.998;2022-09-09T06:19:26;45.09;41.91;52.93;;
38366;Laerm;943;51.568;6.998;2022-09-09T06:21:58;45.24;42.10;53.61;;
38366;Laerm;943;51.568;6.998;2022-09-09T06:24:28;44.58;41.66;55.08;;
38366;Laerm;943;51.568;6.998;2022-09-09T06:26:59;47.32;41.71;63.06;;
38366;Laerm;943;51.568;6.998;2022-09-09T06:29:31;55.26;43.74;72.31;;
38366;Laerm;943;51.568;6.998;2022-09-09T06:31:58;44.86;41.57;55.88;;
38366;Laerm;943;51.568;6.998;2022-09-09T06:34:27;44.79;41.68;50.31;;
38366;Laerm;943;51.568;6.998;2022-09-09T06:36:58;45.23;42.34;50.17;;
38366;Laerm;943;51.568;6.998;2022-09-09T06:39:31;45.29;42.46;50.11;;
38366;Laerm;943;51.568;6.998;2022-09-09T06:41:59;46.73;41.90;56.43;;
38366;Laerm;943;51.568;6.998;2022-09-09T06:44:45;44.93;41.88;52.60;;
38366;Laerm;943;51.568;6.998;2022-09-09T06:47:22;45.47;41.31;53.59;;
38366;Laerm;943;51.568;6.998;2022-09-09T06:49:51;45.37;40.93;63.94;;
38366;Laerm;943;51.568;6.998;2022-09-09T06:52:18;45.78;41.07;55.51;;
38366;Laerm;943;51.568;6.998;2022-09-09T06:54:47;45.36;41.74;56.59;;
38366;Laerm;943;51.568;6.998;2022-09-09T06:57:16;46.51;41.34;56.01;;
38366;Laerm;943;51.568;6.998;2022-09-09T07:00:09;47.47;40.78;67.68;;
38366;Laerm;943;51.568;6.998;2022-09-09T07:02:37;47.90;40.84;61.83;;
38366;Laerm;943;51.568;6.998;2022-09-09T07:05:08;49.26;41.25;62.47;;
38366;Laerm;943;51.568;6.998;2022-09-09T07:07:38;52.69;41.41;68.14;;
38366;Laerm;943;51.568;6.998;2022-09-09T07:10:06;44.76;40.60;58.47;;
38366;Laerm;943;51.568;6.998;2022-09-09T07:12:37;45.96;40.97;61.62;;
38366;Laerm;943;51.568;6.998;2022-09-09T07:15:09;45.95;41.26;61.10;;
38366;Laerm;943;51.568;6.998;2022-09-09T07:17:40;46.14;40.42;69.38;;
38366;Laerm;943;51.568;6.998;2022-09-09T07:20:08;45.48;41.30;63.25;;
38366;Laerm;943;51.568;6.998;2022-09-09T07:22:36;47.66;40.89;65.19;;
38366;Laerm;943;51.568;6.998;2022-09-09T07:25:05;48.97;41.07;65.21;;
38366;Laerm;943;51.568;6.998;2022-09-09T07:27:34;50.26;41.25;63.33;;
38366;Laerm;943;51.568;6.998;2022-09-09T07:30:03;45.44;40.12;60.08;;
38366;Laerm;943;51.568;6.998;2022-09-09T07:32:32;46.02;40.15;58.00;;
38366;Laerm;943;51.568;6.998;2022-09-09T07:35:01;48.28;41.14;62.28;;
38366;Laerm;943;51.568;6.998;2022-09-09T07:37:29;45.09;40.25;61.58;;
38366;Laerm;943;51.568;6.998;2022-09-09T07:39:57;44.80;40.85;59.55;;
38366;Laerm;943;51.568;6.998;2022-09-09T07:42:26;44.90;41.43;62.04;;
38366;Laerm;943;51.568;6.998;2022-09-09T07:44:53;44.84;40.97;54.79;;
38366;Laerm;943;51.568;6.998;2022-09-09T07:47:22;45.89;41.84;58.00;;
38366;Laerm;943;51.568;6.998;2022-09-09T07:49:52;47.03;41.26;61.12;;
38366;Laerm;943;51.568;6.998;2022-09-09T07:52:25;47.06;40.53;61.03;;
38366;Laerm;943;51.568;6.998;2022-09-09T07:54:56;48.03;43.98;63.36;;
38366;Laerm;943;51.568;6.998;2022-09-09T07:57:24;52.65;42.99;72.97;;
38366;Laerm;943;51.568;6.998;2022-09-09T07:59:53;51.32;43.72;66.48;;
38366;Laerm;943;51.568;6.998;2022-09-09T08:02:24;52.36;44.60;67.49;;
38366;Laerm;943;51.568;6.998;2022-09-09T08:04:53;51.14;43.22;67.91;;
38366;Laerm;943;51.568;6.998;2022-09-09T08:07:21;48.29;44.24;62.58;;
38366;Laerm;943;51.568;6.998;2022-09-09T08:09:53;49.82;44.46;58.89;;
38366;Laerm;943;51.568;6.998;2022-09-09T08:12:27;51.06;44.03;70.90;;
38366;Laerm;943;51.568;6.998;2022-09-09T08:14:56;52.05;44.19;68.83;;
38366;Laerm;943;51.568;6.998;2022-09-09T08:17:28;48.26;43.18;75.27;;
38366;Laerm;943;51.568;6.998;2022-09-09T08:19:57;46.26;43.04;54.04;;
38366;Laerm;943;51.568;6.998;2022-09-09T08:22:28;48.26;43.91;62.06;;
38366;Laerm;943;51.568;6.998;2022-09-09T08:24:56;48.59;43.90;65.92;;
38366;Laerm;943;51.568;6.998;2022-09-09T08:27:24;48.32;42.60;59.87;;
38366;Laerm;943;51.568;6.998;2022-09-09T08:29:55;50.30;43.07;74.30;;
38366;Laerm;943;51.568;6.998;2022-09-09T08:32:24;49.95;43.83;59.92;;
38366;Laerm;943;51.568;6.998;2022-09-09T08:34:51;47.59;42.53;60.21;;
38366;Laerm;943;51.568;6.998;2022-09-09T08:37:23;46.91;42.50;56.86;;
38366;Laerm;943;51.568;6.998;2022-09-09T08:39:51;46.76;43.19;56.61;;
38366;Laerm;943;51.568;6.998;2022-09-09T08:42:41;50.74;43.28;66.77;;
38366;Laerm;943;51.568;6.998;2022-09-09T08:46:04;49.69;43.38;64.33;;
38366;Laerm;943;51.568;6.998;2022-09-09T08:49:19;51.99;44.84;69.56;;
38366;Laerm;943;51.568;6.998;2022-09-09T08:51:56;48.29;43.32;60.69;;
38366;Laerm;943;51.568;6.998;2022-09-09T08:54:33;47.86;43.62;57.04;;
38366;Laerm;943;51.568;6.998;2022-09-09T08:57:30;50.05;43.04;70.74;;
38366;Laerm;943;51.568;6.998;2022-09-09T08:59:59;47.26;41.41;64.85;;
38366;Laerm;943;51.568;6.998;2022-09-09T09:06:19;51.48;41.10;70.40;;
38366;Laerm;943;51.568;6.998;2022-09-09T09:11:59;48.24;42.83;61.79;;
38366;Laerm;943;51.568;6.998;2022-09-09T09:14:38;46.16;40.93;52.34;;
38366;Laerm;943;51.568;6.998;2022-09-09T09:17:28;46.87;42.00;57.98;;
38366;Laerm;943;51.568;6.998;2022-09-09T09:20:00;48.27;43.23;59.23;;
38366;Laerm;943;51.568;6.998;2022-09-09T09:22:52;49.11;43.55;64.23;;
38366;Laerm;943;51.568;6.998;2022-09-09T09:25:40;48.45;44.02;58.79;;
38366;Laerm;943;51.568;6.998;2022-09-09T09:28:24;47.63;43.58;59.86;;
38366;Laerm;943;51.568;6.998;2022-09-09T09:31:10;51.25;44.81;65.63;;
38366;Laerm;943;51.568;6.998;2022-09-09T09:33:49;51.39;43.89;65.27;;
38366;Laerm;943;51.568;6.998;2022-09-09T09:36:40;49.76;42.43;66.38;;
38366;Laerm;943;51.568;6.998;2022-09-09T09:39:22;51.28;44.95;65.44;;
38366;Laerm;943;51.568;6.998;2022-09-09T09:42:17;50.41;44.11;72.62;;
38366;Laerm;943;51.568;6.998;2022-09-09T09:44:52;46.12;42.31;59.11;;
38366;Laerm;943;51.568;6.998;2022-09-09T09:47:23;46.52;42.18;56.44;;
38366;Laerm;943;51.568;6.998;2022-09-09T09:50:19;48.63;43.69;58.79;;
38366;Laerm;943;51.568;6.998;2022-09-09T09:53:20;47.35;41.84;56.53;;
38366;Laerm;943;51.568;6.998;2022-09-09T09:56:12;47.39;43.28;60.46;;
38366;Laerm;943;51.568;6.998;2022-09-09T10:01:32;47.69;42.19;63.81;;
38366;Laerm;943;51.568;6.998;2022-09-09T10:04:23;48.18;42.04;61.39;;
38366;Laerm;943;51.568;6.998;2022-09-09T10:06:54;49.07;42.39;63.67;;
38366;Laerm;943;51.568;6.998;2022-09-09T10:09:30;46.74;40.80;61.73;;
38366;Laerm;943;51.568;6.998;2022-09-09T10:25:41;46.20;41.33;58.52;;
38366;Laerm;943;51.568;6.998;2022-09-09T10:29:30;50.92;41.99;67.26;;
38366;Laerm;943;51.568;6.998;2022-09-09T10:32:45;45.37;41.34;54.46;;
38366;Laerm;943;51.568;6.998;2022-09-09T10:38:47;45.66;41.10;55.75;;
38366;Laerm;943;51.568;6.998;2022-09-09T10:42:05;48.40;43.33;63.98;;
38366;Laerm;943;51.568;6.998;2022-09-09T10:45:20;48.98;42.89;66.61;;
38366;Laerm;943;51.568;6.998;2022-09-09T10:55:16;49.61;43.27;60.99;;
38366;Laerm;943;51.568;6.998;2022-09-09T10:57:54;45.56;41.00;59.88;;
38366;Laerm;943;51.568;6.998;2022-09-09T11:00:47;46.54;41.78;56.34;;
38366;Laerm;943;51.568;6.998;2022-09-09T11:03:35;49.90;42.31;59.10;;
38366;Laerm;943;51.568;6.998;2022-09-09T11:06:20;48.64;44.45;54.97;;
38366;Laerm;943;51.568;6.998;2022-09-09T11:08:52;48.27;42.94;64.00;;
38366;Laerm;943;51.568;6.998;2022-09-09T11:12:01;47.26;42.43;55.75;;
38366;Laerm;943;51.568;6.998;2022-09-09T11:14:50;50.30;44.07;64.16;;
38366;Laerm;943;51.568;6.998;2022-09-09T11:17:49;48.03;42.81;65.18;;
38366;Laerm;943;51.568;6.998;2022-09-09T11:20:18;52.16;43.85;73.20;;
38366;Laerm;943;51.568;6.998;2022-09-09T11:23:05;48.36;43.11;62.13;;
38366;Laerm;943;51.568;6.998;2022-09-09T11:25:55;49.67;41.55;67.06;;
38366;Laerm;943;51.568;6.998;2022-09-09T11:38:51;47.23;41.55;68.14;;
38366;Laerm;943;51.568;6.998;2022-09-09T11:41:21;47.74;40.59;67.61;;
38366;Laerm;943;51.568;6.998;2022-09-09T11:43:53;45.49;40.18;62.99;;
38366;Laerm;943;51.568;6.998;2022-09-09T11:46:36;46.12;41.42;59.44;;
38366;Laerm;943;51.568;6.998;2022-09-09T11:49:29;44.26;39.16;56.48;;
38366;Laerm;943;51.568;6.998;2022-09-09T11:52:37;44.64;40.57;55.97;;
38366;Laerm;943;51.568;6.998;2022-09-09T11:55:34;44.65;41.47;54.99;;
38366;Laerm;943;51.568;6.998;2022-09-09T12:00:47;44.11;39.87;61.15;;
38366;Laerm;943;51.568;6.998;2022-09-09T12:03:50;45.02;40.11;64.67;;
38366;Laerm;943;51.568;6.998;2022-09-09T12:07:21;47.97;42.08;66.77;;
38366;Laerm;943;51.568;6.998;2022-09-09T12:10:35;45.21;40.62;60.39;;
38366;Laerm;943;51.568;6.998;2022-09-09T12:13:19;47.05;41.79;62.12;;
38366;Laerm;943;51.568;6.998;2022-09-09T12:15:58;47.12;42.26;64.84;;
38366;Laerm;943;51.568;6.998;2022-09-09T12:18:38;50.11;42.55;61.32;;
38366;Laerm;943;51.568;6.998;2022-09-09T12:24:32;46.74;40.79;59.82;;
38366;Laerm;943;51.568;6.998;2022-09-09T12:27:31;46.10;40.82;57.77;;
38366;Laerm;943;51.568;6.998;2022-09-09T12:30:15;46.55;40.54;59.99;;
38366;Laerm;943;51.568;6.998;2022-09-09T12:32:43;44.47;40.88;55.24;;
38366;Laerm;943;51.568;6.998;2022-09-09T12:35:28;44.91;41.08;55.06;;
38366;Laerm;943;51.568;6.998;2022-09-09T12:38:04;47.63;42.59;61.59;;
38366;Laerm;943;51.568;6.998;2022-09-09T12:40:35;46.67;43.24;57.20;;
38366;Laerm;943;51.568;6.998;2022-09-09T12:43:23;49.47;43.64;65.04;;
38366;Laerm;943;51.568;6.998;2022-09-09T12:46:03;49.77;43.31;60.70;;
38366;Laerm;943;51.568;6.998;2022-09-09T12:48:41;47.14;42.96;57.62;;
38366;Laerm;943;51.568;6.998;2022-09-09T12:51:30;49.96;44.61;63.92;;
38366;Laerm;943;51.568;6.998;2022-09-09T12:54:00;47.27;43.01;56.87;;
38366;Laerm;943;51.568;6.998;2022-09-09T12:56:32;50.37;42.79;64.22;;
38366;Laerm;943;51.568;6.998;2022-09-09T12:59:01;45.09;41.27;57.95;;
38366;Laerm;943;51.568;6.998;2022-09-09T13:01:33;52.22;43.38;76.88;;
38366;Laerm;943;51.568;6.998;2022-09-09T13:04:02;61.75;52.48;80.90;;
38366;Laerm;943;51.568;6.998;2022-09-09T13:06:32;57.38;48.05;75.97;;
38366;Laerm;943;51.568;6.998;2022-09-09T13:09:04;57.89;48.16;78.75;;
38366;Laerm;943;51.568;6.998;2022-09-09T13:11:41;51.24;47.07;65.82;;
38366;Laerm;943;51.568;6.998;2022-09-09T13:14:33;48.22;43.94;61.67;;
38366;Laerm;943;51.568;6.998;2022-09-09T13:17:19;49.50;45.41;72.21;;
38366;Laerm;943;51.568;6.998;2022-09-09T13:19:52;52.55;45.73;67.73;;
38366;Laerm;943;51.568;6.998;2022-09-09T13:25:27;51.30;47.24;64.15;;
38366;Laerm;943;51.568;6.998;2022-09-09T13:28:18;51.73;46.28;67.08;;
38366;Laerm;943;51.568;6.998;2022-09-09T13:31:05;51.11;44.98;68.37;;
38366;Laerm;943;51.568;6.998;2022-09-09T13:33:39;50.59;45.04;74.84;;
38366;Laerm;943;51.568;6.998;2022-09-09T13:36:12;49.73;45.84;64.03;;
38366;Laerm;943;51.568;6.998;2022-09-09T13:38:58;49.13;44.70;57.18;;
38366;Laerm;943;51.568;6.998;2022-09-09T13:41:36;50.40;45.22;64.25;;
38366;Laerm;943;51.568;6.998;2022-09-09T13:44:05;50.04;44.25;66.06;;
38366;Laerm;943;51.568;6.998;2022-09-09T13:46:41;48.36;45.05;72.54;;
38366;Laerm;943;51.568;6.998;2022-09-09T13:51:47;47.83;43.54;58.24;;
38366;Laerm;943;51.568;6.998;2022-09-09T13:54:19;46.99;43.99;57.71;;
38366;Laerm;943;51.568;6.998;2022-09-09T13:56:47;45.81;42.13;53.77;;
38366;Laerm;943;51.568;6.998;2022-09-09T13:59:19;45.66;41.91;58.41;;
38366;Laerm;943;51.568;6.998;2022-09-09T14:01:48;46.76;42.72;66.01;;
38366;Laerm;943;51.568;6.998;2022-09-09T14:04:17;46.29;42.81;70.75;;
38366;Laerm;943;51.568;6.998;2022-09-09T14:06:44;46.02;42.77;52.97;;
38366;Laerm;943;51.568;6.998;2022-09-09T14:09:17;45.45;41.90;52.10;;
38366;Laerm;943;51.568;6.998;2022-09-09T14:11:46;47.37;40.80;59.69;;
38366;Laerm;943;51.568;6.998;2022-09-09T14:14:15;48.24;41.83;72.41;;
38366;Laerm;943;51.568;6.998;2022-09-09T14:16:44;45.27;41.70;58.74;;
38366;Laerm;943;51.568;6.998;2022-09-09T14:19:12;45.22;41.19;59.72;;
38366;Laerm;943;51.568;6.998;2022-09-09T14:21:39;46.81;41.79;65.96;;
38366;Laerm;943;51.568;6.998;2022-09-09T14:24:08;45.39;41.40;57.60;;
38366;Laerm;943;51.568;6.998;2022-09-09T14:26:35;45.09;40.08;52.31;;
38366;Laerm;943;51.568;6.998;2022-09-09T14:29:04;44.21;40.91;52.37;;
38366;Laerm;943;51.568;6.998;2022-09-09T14:31:31;42.96;39.56;56.17;;
38366;Laerm;943;51.568;6.998;2022-09-09T14:33:59;43.65;39.39;52.48;;
38366;Laerm;943;51.568;6.998;2022-09-09T14:36:27;43.76;40.35;55.01;;
38366;Laerm;943;51.568;6.998;2022-09-09T14:38:55;44.66;40.64;65.82;;
38366;Laerm;943;51.568;6.998;2022-09-09T14:41:22;46.03;41.35;63.24;;
38366;Laerm;943;51.568;6.998;2022-09-09T14:43:51;44.39;40.22;55.83;;
38366;Laerm;943;51.568;6.998;2022-09-09T14:46:21;44.41;40.84;61.42;;
38366;Laerm;943;51.568;6.998;2022-09-09T14:48:49;44.46;40.99;58.86;;
38366;Laerm;943;51.568;6.998;2022-09-09T14:51:25;46.10;41.59;70.07;;
38366;Laerm;943;51.568;6.998;2022-09-09T14:53:58;49.93;44.37;60.80;;
38366;Laerm;943;51.568;6.998;2022-09-09T14:56:32;47.62;43.52;59.09;;
38366;Laerm;943;51.568;6.998;2022-09-09T14:59:04;57.60;48.16;80.36;;
38366;Laerm;943;51.568;6.998;2022-09-09T15:01:32;48.10;44.49;64.68;;
38366;Laerm;943;51.568;6.998;2022-09-09T15:04:04;50.72;44.11;65.81;;
38366;Laerm;943;51.568;6.998;2022-09-09T15:06:35;56.36;44.90;81.00;;
38366;Laerm;943;51.568;6.998;2022-09-09T15:09:06;60.59;55.43;83.33;;
38366;Laerm;943;51.568;6.998;2022-09-09T15:11:37;61.20;51.80;83.51;;
38366;Laerm;943;51.568;6.998;2022-09-09T15:14:09;54.38;48.90;78.62;;
38366;Laerm;943;51.568;6.998;2022-09-09T15:16:39;53.64;49.66;72.63;;
38366;Laerm;943;51.568;6.998;2022-09-09T15:19:08;57.03;50.86;84.01;;
38366;Laerm;943;51.568;6.998;2022-09-09T15:21:37;59.28;51.73;89.11;;
38366;Laerm;943;51.568;6.998;2022-09-09T15:24:06;55.14;49.73;83.73;;
38366;Laerm;943;51.568;6.998;2022-09-09T15:26:37;51.21;46.03;68.24;;
38366;Laerm;943;51.568;6.998;2022-09-09T15:29:08;49.17;44.35;74.35;;
38366;Laerm;943;51.568;6.998;2022-09-09T15:31:36;50.86;45.85;68.84;;
38366;Laerm;943;51.568;6.998;2022-09-09T15:34:08;50.64;44.24;72.65;;
38366;Laerm;943;51.568;6.998;2022-09-09T15:36:41;46.67;43.36;56.14;;
38366;Laerm;943;51.568;6.998;2022-09-09T15:39:16;50.50;43.66;78.25;;
38366;Laerm;943;51.568;6.998;2022-09-09T15:41:47;48.61;44.21;64.86;;
38366;Laerm;943;51.568;6.998;2022-09-09T15:44:17;51.53;46.58;82.37;;
38366;Laerm;943;51.568;6.998;2022-09-09T15:46:52;49.43;46.36;68.74;;
38366;Laerm;943;51.568;6.998;2022-09-09T15:49:26;48.76;44.93;64.07;;
38366;Laerm;943;51.568;6.998;2022-09-09T15:52:00;47.90;43.98;60.45;;
38366;Laerm;943;51.568;6.998;2022-09-09T15:54:36;47.08;42.29;60.34;;
38366;Laerm;943;51.568;6.998;2022-09-09T15:57:11;47.02;43.07;58.62;;
38366;Laerm;943;51.568;6.998;2022-09-09T15:59:39;49.67;43.05;70.76;;
38366;Laerm;943;51.568;6.998;2022-09-09T16:02:09;48.14;42.87;60.19;;
38366;Laerm;943;51.568;6.998;2022-09-09T16:04:37;46.77;43.23;60.42;;
38366;Laerm;943;51.568;6.998;2022-09-09T16:07:06;45.74;42.19;59.81;;
38366;Laerm;943;51.568;6.998;2022-09-09T16:09:36;48.47;42.04;72.25;;
38366;Laerm;943;51.568;6.998;2022-09-09T16:12:05;44.93;41.35;55.79;;
38366;Laerm;943;51.568;6.998;2022-09-09T16:14:37;46.27;43.16;58.14;;
38366;Laerm;943;51.568;6.998;2022-09-09T16:17:06;46.94;42.48;58.45;;
38366;Laerm;943;51.568;6.998;2022-09-09T16:19:34;46.16;42.16;55.07;;
38366;Laerm;943;51.568;6.998;2022-09-09T16:22:04;44.65;40.68;56.07;;
38366;Laerm;943;51.568;6.998;2022-09-09T16:24:34;45.59;41.85;71.05;;